Time;durP1;ratioP1;P1;durP2;ratioP2;P2;SDS_P1;SDS_P2;PMS_P1;PMS_P2;Temp;Humidity;BMP_temperature;BMP_pressure;BME280_temperature;BME280_humidity;BME280_pressure;Samples;Min_cycle;Max_cycle;Signal;HPM_P1;HPM_P2
2022/06/10 00:00:31;;;;;;;11.45;6.32;;;13.60;99.90;;;;;;5031995;28;20052;-66
2022/06/10 00:02:58;;;;;;;9.88;5.68;;;13.50;99.90;;;;;;5029239;28;20072;-66
2022/06/10 00:05:28;;;;;;;19.92;7.18;;;13.50;99.90;;;;;;5029089;28;20053;-66
2022/06/10 00:07:57;;;;;;;10.85;5.68;;;13.50;99.90;;;;;;5029904;28;20111;-66
2022/06/10 00:10:26;;;;;;;8.75;5.13;;;13.40;99.90;;;;;;5027771;28;20042;-66
2022/06/10 00:12:53;;;;;;;11.40;5.35;;;13.40;99.90;;;;;;5026506;28;20046;-66
2022/06/10 00:15:21;;;;;;;11.50;5.63;;;13.40;99.90;;;;;;5028989;28;20072;-66
2022/06/10 00:17:50;;;;;;;9.10;5.65;;;13.30;99.90;;;;;;5028868;28;20050;-66
2022/06/10 00:20:20;;;;;;;13.55;5.90;;;13.30;99.90;;;;;;5029231;28;20045;-66
2022/06/10 00:22:47;;;;;;;8.65;5.47;;;13.30;99.90;;;;;;5028538;28;20049;-66
2022/06/10 00:25:17;;;;;;;9.45;5.80;;;13.20;99.90;;;;;;5030477;28;20080;-66
2022/06/10 00:27:45;;;;;;;8.60;4.68;;;13.20;99.90;;;;;;5026221;28;20143;-66
2022/06/10 00:30:13;;;;;;;12.15;5.80;;;13.10;99.90;;;;;;5033463;28;20061;-66
2022/06/10 00:32:40;;;;;;;10.60;5.10;;;13.10;99.90;;;;;;5034781;28;20041;-66
2022/06/10 00:35:10;;;;;;;14.00;5.18;;;13.10;99.90;;;;;;5030487;28;20133;-66
2022/06/10 00:37:37;;;;;;;9.05;5.72;;;13.10;99.90;;;;;;5042417;28;20045;-66
2022/06/10 00:40:06;;;;;;;11.07;6.30;;;13.00;99.90;;;;;;5036746;28;20546;-66
2022/06/10 00:42:35;;;;;;;12.70;5.50;;;13.10;99.90;;;;;;5029646;28;20772;-66
2022/06/10 00:45:04;;;;;;;9.68;5.75;;;13.00;99.90;;;;;;5037833;28;20064;-66
2022/06/10 00:47:38;;;;;;;9.80;5.30;;;13.00;99.90;;;;;;5030513;28;20473;-66
2022/06/10 00:50:28;;;;;;;8.82;5.38;;;13.00;99.90;;;;;;5038214;28;20099;-66
2022/06/10 00:53:00;;;;;;;9.68;5.28;;;13.00;99.90;;;;;;5026053;28;20506;-66
2022/06/10 00:55:29;;;;;;;9.13;5.72;;;13.00;99.90;;;;;;5039576;28;20460;-66
2022/06/10 00:58:23;;;;;;;14.80;6.30;;;12.90;99.90;;;;;;5029628;28;20073;-66
2022/06/10 01:00:51;;;;;;;10.63;6.15;;;12.90;99.90;;;;;;5027387;28;20041;-66
2022/06/10 01:03:18;;;;;;;10.02;5.80;;;12.90;99.90;;;;;;5027167;28;20087;-66
2022/06/10 01:05:46;;;;;;;10.07;5.72;;;12.90;99.90;;;;;;5029230;28;20071;-66
2022/06/10 01:08:15;;;;;;;9.90;6.15;;;12.90;99.90;;;;;;5029171;28;20531;-66
2022/06/10 01:11:05;;;;;;;9.40;5.80;;;12.90;99.90;;;;;;5028895;28;20147;-66
2022/06/10 01:13:51;;;;;;;9.07;5.78;;;12.80;99.90;;;;;;5027716;28;20536;-66
2022/06/10 01:16:30;;;;;;;13.05;6.05;;;12.80;99.90;;;;;;5028268;28;20428;-66
2022/06/10 01:19:18;;;;;;;11.82;6.10;;;12.80;99.90;;;;;;5033337;28;20045;-66
2022/06/10 01:22:14;;;;;;;11.43;6.38;;;12.80;99.90;;;;;;5037016;28;20077;-66
2022/06/10 01:25:19;;;;;;;9.55;5.50;;;12.80;99.90;;;;;;5024951;28;20052;-66
2022/06/10 01:28:01;;;;;;;11.23;5.95;;;12.80;99.90;;;;;;5026476;28;20125;-66
2022/06/10 01:30:38;;;;;;;9.75;5.68;;;12.70;99.90;;;;;;5025149;28;20041;-66
2022/06/10 01:33:08;;;;;;;9.77;5.55;;;12.70;99.90;;;;;;5038425;28;20119;-66
2022/06/10 01:35:53;;;;;;;10.05;5.75;;;12.70;99.90;;;;;;5045300;28;20068;-66
2022/06/10 01:38:36;;;;;;;12.65;5.40;;;12.70;99.90;;;;;;5034344;28;20133;-66
2022/06/10 01:41:21;;;;;;;10.90;5.53;;;12.60;99.90;;;;;;5016014;28;20041;-66
2022/06/10 01:44:19;;;;;;;9.57;5.63;;;12.60;99.90;;;;;;5023915;28;20052;-66
2022/06/10 01:46:57;;;;;;;10.20;5.90;;;12.60;99.90;;;;;;5028203;28;20098;-66
2022/06/10 01:49:30;;;;;;;12.35;5.63;;;12.60;99.90;;;;;;5035919;28;20492;-66
2022/06/10 01:52:18;;;;;;;9.55;5.43;;;12.60;99.90;;;;;;5043184;28;20052;-65
2022/06/10 01:55:02;;;;;;;12.80;6.35;;;12.50;99.90;;;;;;5021962;28;20102;-65
2022/06/10 01:57:43;;;;;;;12.30;7.80;;;12.50;99.90;;;;;;5040608;28;20055;-65
2022/06/10 02:00:18;;;;;;;10.13;7.07;;;12.50;99.90;;;;;;5024676;28;20045;-65
2022/06/10 02:02:53;;;;;;;9.60;5.40;;;12.50;99.90;;;;;;5032514;28;20100;-65
2022/06/10 02:05:24;;;;;;;14.20;5.80;;;12.50;99.90;;;;;;5026342;28;20504;-65
2022/06/10 02:08:04;;;;;;;11.85;6.28;;;12.40;99.90;;;;;;5041087;28;20414;-65
2022/06/10 02:10:39;;;;;;;12.82;6.00;;;12.40;99.90;;;;;;5022646;28;20549;-65
2022/06/10 02:13:14;;;;;;;8.98;5.65;;;12.40;99.90;;;;;;5046413;28;20041;-65
2022/06/10 02:15:47;;;;;;;10.65;6.30;;;12.40;99.90;;;;;;5021419;28;20132;-65
2022/06/10 02:18:21;;;;;;;10.55;6.47;;;12.30;99.90;;;;;;5027994;28;20045;-64
2022/06/10 02:20:56;;;;;;;10.65;6.68;;;12.30;99.90;;;;;;5032357;28;20045;-66
2022/06/10 02:23:31;;;;;;;10.90;5.65;;;12.30;99.90;;;;;;5030551;28;20447;-65
2022/06/10 02:26:04;;;;;;;11.55;5.65;;;12.30;99.90;;;;;;5021019;28;20535;-66
2022/06/10 02:28:44;;;;;;;8.98;5.15;;;12.30;99.90;;;;;;5042142;28;20462;-65
2022/06/10 02:31:23;;;;;;;9.88;5.93;;;12.30;99.90;;;;;;5021890;28;20053;-64
2022/06/10 02:33:51;;;;;;;11.18;6.38;;;12.20;99.90;;;;;;5043616;28;20478;-65
2022/06/10 02:36:25;;;;;;;12.00;6.38;;;12.20;99.90;;;;;;5050198;28;20098;-65
2022/06/10 02:39:01;;;;;;;11.90;6.38;;;12.10;99.90;;;;;;5033798;28;20484;-65
2022/06/10 02:41:52;;;;;;;13.45;6.68;;;12.10;99.90;;;;;;5048920;28;20106;-65
2022/06/10 02:44:27;;;;;;;11.45;6.45;;;12.10;99.90;;;;;;5048606;28;20049;-65
2022/06/10 02:47:16;;;;;;;13.02;6.30;;;12.10;99.90;;;;;;5049661;28;20045;-65
2022/06/10 02:49:44;;;;;;;14.45;6.82;;;12.10;99.90;;;;;;5018988;28;20041;-65
2022/06/10 02:52:14;;;;;;;10.90;6.78;;;12.10;99.90;;;;;;5043020;28;20137;-66
2022/06/10 02:54:43;;;;;;;10.27;6.30;;;12.10;99.90;;;;;;5023322;28;20456;-65
2022/06/10 02:57:18;;;;;;;11.15;6.55;;;12.10;99.90;;;;;;5029246;28;20572;-66
2022/06/10 03:03:06;;;;;;;11.98;6.85;;;12.10;99.90;;;;;;5025628;28;20156;-65
2022/06/10 03:06:00;;;;;;;11.80;7.28;;;12.00;99.90;;;;;;5054899;28;20377;-65
2022/06/10 03:08:35;;;;;;;9.82;7.00;;;12.00;99.90;;;;;;5055565;28;20483;-64
2022/06/10 03:11:06;;;;;;;13.13;7.03;;;12.00;99.90;;;;;;5062255;28;20075;-65
2022/06/10 03:13:46;;;;;;;11.27;6.80;;;12.00;99.90;;;;;;5052169;28;20045;-66
2022/06/10 03:16:28;;;;;;;12.98;7.20;;;12.10;99.90;;;;;;5067024;28;20053;-65
2022/06/10 03:19:07;;;;;;;10.43;6.80;;;12.10;99.90;;;;;;5040487;28;20500;-66
2022/06/10 03:21:55;;;;;;;13.73;7.05;;;12.10;99.90;;;;;;5054880;28;20154;-66
2022/06/10 03:24:46;;;;;;;14.05;7.40;;;12.10;99.90;;;;;;5043724;28;20470;-65
2022/06/10 03:27:18;;;;;;;13.65;6.60;;;12.20;99.90;;;;;;5035662;28;20041;-66
2022/06/10 03:29:58;;;;;;;11.88;6.55;;;12.20;99.90;;;;;;5052839;28;20150;-66
2022/06/10 03:32:38;;;;;;;13.52;6.80;;;12.20;99.90;;;;;;5050465;28;20045;-66
2022/06/10 03:35:29;;;;;;;16.73;7.88;;;12.30;99.90;;;;;;5054142;28;21194;-65
2022/06/10 03:37:58;;;;;;;11.77;6.95;;;12.30;99.90;;;;;;5051661;28;20053;-66
2022/06/10 03:40:28;;;;;;;14.93;6.47;;;12.40;99.90;;;;;;5056343;28;20144;-66
2022/06/10 03:42:58;;;;;;;15.10;7.28;;;12.40;99.90;;;;;;5042378;28;20053;-66
2022/06/10 03:45:36;;;;;;;12.85;6.55;;;12.50;99.90;;;;;;5044136;28;20048;-66
2022/06/10 03:48:06;;;;;;;13.07;6.82;;;12.40;99.90;;;;;;5037479;28;20463;-65
2022/06/10 03:50:38;;;;;;;15.25;6.50;;;12.40;99.90;;;;;;5040800;28;20041;-64
2022/06/10 03:53:07;;;;;;;16.10;7.85;;;12.40;99.90;;;;;;5029547;28;20164;-66
2022/06/10 03:55:34;;;;;;;10.07;6.35;;;12.40;99.90;;;;;;5031951;28;20519;-65
2022/06/10 03:58:01;;;;;;;10.98;6.60;;;12.40;99.90;;;;;;5030275;28;20042;-65
2022/06/10 04:00:29;;;;;;;10.90;6.13;;;12.50;99.90;;;;;;5041323;28;20099;-65
2022/06/10 04:02:56;;;;;;;14.10;7.13;;;12.50;99.90;;;;;;5027124;28;20039;-65
2022/06/10 04:05:24;;;;;;;10.38;6.05;;;12.60;99.90;;;;;;5028211;28;20048;-65
2022/06/10 04:07:51;;;;;;;14.45;6.57;;;12.70;99.90;;;;;;5028146;28;20053;-65
2022/06/10 04:10:22;;;;;;;9.80;6.15;;;12.70;99.90;;;;;;5030299;28;20045;-65
2022/06/10 04:12:50;;;;;;;13.57;7.03;;;12.80;99.90;;;;;;5035757;28;20045;-65
2022/06/10 04:15:19;;;;;;;11.43;6.88;;;12.90;99.90;;;;;;5031133;28;20041;-65
2022/06/10 04:17:49;;;;;;;10.13;6.40;;;13.00;99.90;;;;;;5034092;28;20069;-65
2022/06/10 04:20:20;;;;;;;8.43;6.18;;;13.00;99.90;;;;;;5028580;28;20500;-65
2022/06/10 04:22:47;;;;;;;16.92;6.82;;;13.10;99.90;;;;;;5031470;28;20411;-65
2022/06/10 04:25:15;;;;;;;9.55;6.32;;;13.20;99.90;;;;;;5031500;28;20498;-66
2022/06/10 04:27:43;;;;;;;10.85;6.18;;;13.20;99.90;;;;;;5035916;28;20152;-65
2022/06/10 04:30:25;;;;;;;10.60;6.15;;;13.30;99.90;;;;;;5036804;28;20110;-65
2022/06/10 04:32:53;;;;;;;;;;;13.30;99.90;;;;;;5030853;28;20052;-65
2022/06/10 04:35:21;;;;;;;13.32;7.18;;;13.40;99.90;;;;;;5041856;28;19924;-65
2022/06/10 04:37:50;;;;;;;11.23;6.90;;;13.40;99.90;;;;;;5032345;28;20100;-65
2022/06/10 04:40:20;;;;;;;9.82;6.80;;;13.50;99.90;;;;;;5036300;28;20485;-65
2022/06/10 04:42:49;;;;;;;9.50;5.95;;;13.50;99.90;;;;;;5024734;28;20072;-64
2022/06/10 04:45:20;;;;;;;10.15;6.50;;;13.60;99.90;;;;;;5031333;28;20041;-66
2022/06/10 04:47:48;;;;;;;11.27;6.63;;;13.70;99.90;;;;;;5022211;28;20560;-66
2022/06/10 04:50:17;;;;;;;13.65;6.85;;;13.80;99.90;;;;;;5032489;28;20408;-65
2022/06/10 04:52:44;;;;;;;9.85;6.65;;;13.80;99.90;;;;;;5030669;28;20470;-65
2022/06/10 04:55:12;;;;;;;13.45;7.43;;;13.90;99.90;;;;;;5019851;28;20045;-65
2022/06/10 04:57:40;;;;;;;12.27;7.13;;;13.90;99.90;;;;;;5017550;28;20052;-65
2022/06/10 05:00:13;;;;;;;11.48;7.32;;;14.00;99.90;;;;;;5028613;28;20531;-65
2022/06/10 05:02:40;;;;;;;13.18;7.70;;;14.00;99.90;;;;;;5027503;28;20064;-65
2022/06/10 05:05:08;;;;;;;13.45;7.03;;;13.80;99.90;;;;;;5027714;28;20827;-66
2022/06/10 05:07:37;;;;;;;11.90;7.05;;;13.80;99.90;;;;;;5031047;28;20041;-65
2022/06/10 05:10:05;;;;;;;10.25;6.30;;;13.80;99.90;;;;;;5029548;28;20041;-65
2022/06/10 05:12:32;;;;;;;10.48;7.30;;;13.80;99.90;;;;;;5027834;28;20493;-65
2022/06/10 05:15:00;;;;;;;12.30;7.32;;;13.90;99.90;;;;;;5027926;28;20053;-65
2022/06/10 05:17:27;;;;;;;10.80;7.28;;;14.00;99.90;;;;;;5026876;28;20515;-66
2022/06/10 05:19:54;;;;;;;12.43;7.72;;;14.00;99.90;;;;;;5032399;28;20044;-66
2022/06/10 05:22:23;;;;;;;11.88;7.97;;;14.10;99.90;;;;;;5028179;28;20570;-65
2022/06/10 05:24:50;;;;;;;14.75;7.63;;;14.10;99.90;;;;;;5026650;28;20049;-65
2022/06/10 05:27:17;;;;;;;15.95;8.07;;;14.20;99.90;;;;;;5018841;28;20475;-66
2022/06/10 05:29:45;;;;;;;14.85;7.90;;;14.30;99.90;;;;;;5027533;28;20124;-66
2022/06/10 05:32:12;;;;;;;12.82;8.05;;;14.30;99.90;;;;;;5027604;28;20041;-66
2022/06/10 05:34:46;;;;;;;14.13;8.23;;;14.20;99.90;;;;;;5027212;28;20402;-67
2022/06/10 05:37:17;;;;;;;10.00;6.65;;;14.10;99.90;;;;;;5036750;28;20073;-65
2022/06/10 05:39:44;;;;;;;15.33;6.87;;;14.30;99.90;;;;;;5030457;28;20502;-66
2022/06/10 05:42:12;;;;;;;9.25;7.05;;;14.40;99.90;;;;;;5035252;28;20284;-66
2022/06/10 05:44:42;;;;;;;11.00;7.32;;;14.50;99.90;;;;;;5036962;28;20372;-66
2022/06/10 05:47:19;;;;;;;13.15;7.45;;;14.60;99.90;;;;;;5029137;28;20053;-65
2022/06/10 05:49:50;;;;;;;13.15;8.90;;;14.70;99.90;;;;;;5040524;28;20060;-67
2022/06/10 05:52:20;;;;;;;12.10;7.20;;;14.70;99.90;;;;;;5032157;28;20049;-66
2022/06/10 05:54:49;;;;;;;14.02;9.15;;;14.70;99.90;;;;;;5031996;28;20049;-66
2022/06/10 05:57:17;;;;;;;12.45;7.07;;;14.70;99.90;;;;;;5032480;28;20084;-66
2022/06/10 05:59:47;;;;;;;13.18;7.50;;;14.80;99.90;;;;;;5031797;28;20103;-65
2022/06/10 06:02:14;;;;;;;15.63;8.00;;;14.90;99.90;;;;;;5024742;28;20093;-67
2022/06/10 06:04:42;;;;;;;13.57;6.95;;;14.80;99.90;;;;;;5031921;28;20042;-66
2022/06/10 06:07:16;;;;;;;13.32;7.80;;;15.00;99.90;;;;;;5031620;28;20049;-66
2022/06/10 06:09:44;;;;;;;13.77;8.50;;;15.00;99.90;;;;;;5031966;28;20041;-66
2022/06/10 06:12:11;;;;;;;9.48;6.40;;;15.00;99.90;;;;;;5031038;28;20060;-66
2022/06/10 06:14:38;;;;;;;11.73;8.10;;;15.10;99.90;;;;;;5031348;28;20554;-67
2022/06/10 06:17:06;;;;;;;12.30;7.07;;;15.20;99.90;;;;;;5024055;28;20041;-66
2022/06/10 06:19:34;;;;;;;11.90;7.68;;;15.20;99.90;;;;;;5029643;28;20133;-66
2022/06/10 06:22:01;;;;;;;13.02;7.50;;;15.30;99.90;;;;;;5024624;28;20511;-66
2022/06/10 06:24:37;;;;;;;15.38;8.25;;;15.40;99.90;;;;;;5035595;28;20041;-66
2022/06/10 06:27:05;;;;;;;13.80;7.32;;;15.50;99.90;;;;;;5012901;28;20042;-66
2022/06/10 06:29:33;;;;;;;11.35;6.90;;;15.40;99.90;;;;;;5033050;28;20420;-67
2022/06/10 06:32:00;;;;;;;13.77;7.15;;;15.40;99.90;;;;;;5027596;28;20553;-65
2022/06/10 06:34:28;;;;;;;11.90;7.25;;;15.60;99.90;;;;;;5026794;28;20512;-66
2022/06/10 06:36:56;;;;;;;13.80;7.03;;;15.70;99.90;;;;;;5036464;28;20509;-66
2022/06/10 06:39:25;;;;;;;11.13;6.72;;;15.70;99.90;;;;;;5028257;28;20045;-66
2022/06/10 06:41:54;;;;;;;13.23;7.65;;;15.80;99.90;;;;;;5035733;28;20047;-66
2022/06/10 06:44:31;;;;;;;11.75;6.68;;;15.90;99.90;;;;;;5022055;28;20033;-66
2022/06/10 06:46:58;;;;;;;13.32;6.70;;;15.90;99.90;;;;;;5030666;28;20091;-65
2022/06/10 06:49:28;;;;;;;13.98;6.00;;;16.10;99.90;;;;;;5037177;28;20125;-66
2022/06/10 06:51:56;;;;;;;8.98;6.43;;;16.20;99.90;;;;;;5029985;28;20227;-66
2022/06/10 06:54:24;;;;;;;11.98;6.63;;;16.30;99.90;;;;;;5034693;28;20049;-66
2022/06/10 06:56:51;;;;;;;13.48;7.22;;;16.40;99.90;;;;;;5030943;28;20475;-65
2022/06/10 06:59:19;;;;;;;10.10;6.78;;;16.40;99.90;;;;;;5032579;28;20129;-66
2022/06/10 07:01:47;;;;;;;10.80;6.32;;;16.30;99.90;;;;;;5020319;28;20042;-66
2022/06/10 07:04:15;;;;;;;13.48;7.10;;;16.40;99.90;;;;;;5023307;28;20095;-65
2022/06/10 07:06:44;;;;;;;11.07;5.65;;;16.60;99.90;;;;;;5032009;28;20056;-66
2022/06/10 07:09:13;;;;;;;10.27;6.32;;;16.80;99.90;;;;;;5030352;28;20046;-66
2022/06/10 07:11:41;;;;;;;12.65;6.95;;;16.90;99.90;;;;;;5024200;28;20046;-66
2022/06/10 07:14:12;;;;;;;9.45;7.13;;;16.90;99.90;;;;;;5029324;28;20518;-66
2022/06/10 07:16:39;;;;;;;11.00;7.05;;;17.00;99.90;;;;;;5028122;28;20046;-65
2022/06/10 07:19:08;;;;;;;12.32;6.47;;;17.10;99.90;;;;;;5028326;28;20452;-66
2022/06/10 07:21:36;;;;;;;8.30;5.97;;;17.10;99.90;;;;;;5031810;28;20142;-67
2022/06/10 07:24:03;;;;;;;9.63;5.80;;;17.10;99.90;;;;;;5029904;28;20498;-66
2022/06/10 07:26:31;;;;;;;11.75;5.85;;;17.30;99.90;;;;;;5032500;28;20381;-65
2022/06/10 07:28:58;;;;;;;8.43;5.05;;;17.30;99.90;;;;;;5030302;28;20124;-67
2022/06/10 07:31:25;;;;;;;5.97;4.50;;;17.30;99.90;;;;;;5025700;28;20038;-66
2022/06/10 07:33:53;;;;;;;7.57;4.80;;;17.50;99.90;;;;;;5025508;28;20052;-66
2022/06/10 07:36:21;;;;;;;7.47;3.75;;;17.60;99.90;;;;;;5019382;28;20038;-66
2022/06/10 07:38:48;;;;;;;8.52;5.47;;;17.70;99.90;;;;;;5026368;28;20046;-66
2022/06/10 07:44:06;;;;;;;8.35;4.65;;;17.90;99.90;;;;;;5029719;28;20038;-66
2022/06/10 07:46:34;;;;;;;8.40;4.57;;;18.00;99.90;;;;;;5033264;28;20479;-66
2022/06/10 07:49:01;;;;;;;10.80;5.72;;;18.00;99.90;;;;;;5041364;28;20056;-65
2022/06/10 07:51:28;;;;;;;8.90;4.55;;;18.00;99.90;;;;;;5028544;28;20462;-64
2022/06/10 07:53:55;;;;;;;6.82;4.72;;;18.00;99.90;;;;;;5021461;28;20041;-66
2022/06/10 07:56:23;;;;;;;7.90;4.65;;;18.10;99.90;;;;;;5023835;28;20037;-66
2022/06/10 07:58:53;;;;;;;12.00;5.25;;;18.10;99.90;;;;;;5040607;28;20048;-66
2022/06/10 08:01:22;;;;;;;8.10;4.97;;;18.10;99.90;;;;;;5025825;28;20059;-66
2022/06/10 08:03:49;;;;;;;5.90;3.63;;;18.10;99.90;;;;;;5028792;28;20041;-66
2022/06/10 08:06:19;;;;;;;6.85;4.07;;;18.20;99.90;;;;;;5032610;28;20037;-67
2022/06/10 08:08:47;;;;;;;6.07;3.60;;;18.40;99.90;;;;;;5033225;28;20048;-66
2022/06/10 08:11:15;;;;;;;10.00;3.92;;;18.40;99.90;;;;;;5029318;28;20496;-66
2022/06/10 08:13:42;;;;;;;7.53;4.07;;;18.40;99.90;;;;;;5027921;28;20071;-65
2022/06/10 08:16:09;;;;;;;7.00;4.18;;;18.60;99.90;;;;;;5036438;28;20114;-66
2022/06/10 08:18:37;;;;;;;7.18;4.40;;;18.70;99.90;;;;;;5030772;28;20544;-66
2022/06/10 08:23:52;;;;;;;7.47;4.68;;;18.80;99.90;;;;;;5035644;28;20042;-65
2022/06/10 08:26:20;;;;;;;6.50;3.72;;;18.80;99.90;;;;;;5041178;28;20041;-66
2022/06/10 08:28:48;;;;;;;6.82;3.08;;;18.80;99.90;;;;;;5024100;28;20053;-66
2022/06/10 08:31:15;;;;;;;6.47;2.92;;;19.00;99.90;;;;;;5037717;28;20073;-66
2022/06/10 08:33:44;;;;;;;7.95;3.47;;;19.20;99.90;;;;;;5032038;28;20076;-66
2022/06/10 08:36:13;;;;;;;10.05;3.15;;;19.30;99.90;;;;;;5044010;28;20057;-65
2022/06/10 08:38:42;;;;;;;5.25;3.28;;;19.50;99.90;;;;;;5035614;28;20486;-66
2022/06/10 08:41:46;;;;;;;7.88;3.60;;;19.70;99.90;;;;;;5019546;28;20492;-66
2022/06/10 08:44:30;;;;;;;7.30;3.53;;;19.70;99.90;;;;;;5047395;28;20070;-65
2022/06/10 08:47:13;;;;;;;5.90;3.10;;;19.80;99.90;;;;;;5048414;28;20159;-66
2022/06/10 08:50:03;;;;;;;5.47;3.28;;;20.10;99.90;;;;;;5016549;28;20037;-66
2022/06/10 08:52:38;;;;;;;4.88;3.05;;;20.00;99.90;;;;;;5044720;28;20407;-66
2022/06/10 08:55:17;;;;;;;6.25;3.17;;;19.90;99.90;;;;;;5034297;28;20542;-65
2022/06/10 08:57:47;;;;;;;6.95;3.63;;;20.00;99.90;;;;;;5044802;28;20190;-64
2022/06/10 09:00:19;;;;;;;4.82;3.25;;;20.10;99.90;;;;;;5035778;28;20439;-66
2022/06/10 09:03:27;;;;;;;7.53;3.10;;;20.30;99.90;;;;;;5032905;28;20801;-65
2022/06/10 09:06:00;;;;;;;7.43;2.30;;;20.50;99.90;;;;;;5015989;28;20126;-66
2022/06/10 09:08:33;;;;;;;4.93;2.70;;;20.60;99.90;;;;;;5028004;28;20038;-65
2022/06/10 09:11:18;;;;;;;5.28;2.58;;;20.70;99.90;;;;;;5028654;28;20129;-65
2022/06/10 09:14:00;;;;;;;5.80;2.90;;;20.80;99.90;;;;;;5026409;28;20503;-66
2022/06/10 09:16:48;;;;;;;5.07;2.83;;;20.90;99.90;;;;;;5030044;28;20041;-66
2022/06/10 09:19:31;;;;;;;4.68;3.00;;;21.00;99.90;;;;;;5030365;28;20041;-66
2022/06/10 09:22:34;;;;;;;4.50;2.58;;;21.00;99.90;;;;;;5036208;28;20044;-66
2022/06/10 09:25:29;;;;;;;5.05;2.75;;;20.90;99.90;;;;;;5031399;28;20128;-64
2022/06/10 09:27:58;;;;;;;5.20;2.50;;;21.00;99.90;;;;;;5038653;28;20055;-67
2022/06/10 09:30:56;;;;;;;6.20;2.90;;;20.90;99.90;;;;;;5037754;28;20509;-67
2022/06/10 09:33:53;;;;;;;4.93;2.58;;;20.80;99.90;;;;;;5027376;28;20527;-65
2022/06/10 09:36:55;;;;;;;6.88;2.70;;;20.80;99.90;;;;;;5037052;28;20518;-65
2022/06/10 09:42:30;;;;;;;7.18;3.38;;;20.80;99.90;;;;;;5033776;28;20081;-67
2022/06/10 09:45:12;;;;;;;6.30;3.22;;;20.80;99.90;;;;;;5030771;28;20054;-65
2022/06/10 09:48:04;;;;;;;9.60;4.15;;;20.70;99.90;;;;;;5031138;28;20041;-64
2022/06/10 09:50:42;;;;;;;4.82;3.10;;;21.00;99.90;;;;;;5033866;28;20104;-66
2022/06/10 09:53:36;;;;;;;6.10;2.47;;;21.40;99.90;;;;;;5031340;28;20107;-64
2022/06/10 09:56:29;;;;;;;5.95;2.50;;;21.90;99.90;;;;;;5027371;28;20088;-65
2022/06/10 09:59:14;;;;;;;7.82;2.90;;;21.80;99.90;;;;;;5033251;28;20061;-64
2022/06/10 10:02:09;;;;;;;6.00;2.63;;;21.70;99.90;;;;;;5014618;28;20064;-64
2022/06/10 10:04:52;;;;;;;5.13;2.20;;;21.50;99.90;;;;;;5025966;28;20045;-65
2022/06/10 10:07:38;;;;;;;4.05;2.28;;;21.80;99.90;;;;;;5028667;28;20042;-65
2022/06/10 10:10:52;;;;;;;5.80;2.20;;;22.30;99.90;;;;;;5041408;28;20095;-65
2022/06/10 10:14:10;;;;;;;6.25;2.70;;;22.40;99.90;;;;;;5035434;28;20549;-65
2022/06/10 10:17:01;;;;;;;6.13;2.88;;;22.20;99.90;;;;;;5012782;28;20161;-65
2022/06/10 10:19:49;;;;;;;5.18;3.03;;;22.10;99.90;;;;;;5030129;28;20048;-65
2022/06/10 10:22:34;;;;;;;6.93;2.50;;;22.20;99.90;;;;;;5052688;28;20161;-65
2022/06/10 10:25:02;;;;;;;5.13;2.42;;;22.40;99.90;;;;;;5055068;28;20052;-66
2022/06/10 10:27:32;;;;;;;4.15;2.22;;;22.80;99.90;;;;;;5058007;28;20048;-65
2022/06/10 10:30:16;;;;;;;4.35;2.25;;;23.00;99.90;;;;;;5061110;28;20495;-65
2022/06/10 10:32:58;;;;;;;5.00;2.05;;;23.10;99.90;;;;;;5031932;28;20041;-65
2022/06/10 10:35:30;;;;;;;4.53;2.08;;;22.90;99.90;;;;;;5057512;28;20080;-64
2022/06/10 10:38:11;;;;;;;3.90;2.20;;;22.70;99.90;;;;;;5060606;28;20045;-64
2022/06/10 10:40:42;;;;;;;4.88;2.30;;;22.90;99.90;;;;;;5043548;28;20515;-64
2022/06/10 10:43:15;;;;;;;4.32;2.08;;;23.10;99.90;;;;;;5046282;28;20253;-64
2022/06/10 10:46:04;;;;;;;4.53;1.90;;;23.20;99.90;;;;;;5048198;28;20097;-64
2022/06/10 10:48:53;;;;;;;4.95;1.92;;;23.60;99.90;;;;;;5050060;28;20040;-66
2022/06/10 10:51:23;;;;;;;4.15;1.83;;;23.50;99.90;;;;;;5049725;28;20496;-65
2022/06/10 10:54:33;;;;;;;5.65;2.10;;;23.60;99.90;;;;;;5035727;28;20057;-65
2022/06/10 10:57:12;;;;;;;4.40;1.98;;;23.60;99.90;;;;;;5033299;28;20488;-66
2022/06/10 10:59:42;;;;;;;4.68;1.75;;;24.00;99.90;;;;;;5036455;28;20041;-65
2022/06/10 11:02:48;;;;;;;4.75;1.85;;;23.90;99.90;;;;;;5040459;28;20045;-64
2022/06/10 11:05:36;;;;;;;12.05;6.20;;;24.40;99.90;;;;;;5046808;28;20071;-66
2022/06/10 11:08:20;;;;;;;4.15;2.40;;;25.10;99.90;;;;;;5041996;28;20385;-65
2022/06/10 11:11:13;;;;;;;3.90;2.20;;;25.30;99.90;;;;;;5041214;28;20049;-64
2022/06/10 11:13:41;;;;;;;4.18;2.00;;;25.90;99.90;;;;;;5032924;28;20053;-65
2022/06/10 11:16:34;;;;;;;6.18;1.88;;;26.00;99.90;;;;;;5035159;28;20049;-64
2022/06/10 11:19:01;;;;;;;4.30;1.80;;;26.40;99.90;;;;;;5034342;28;20484;-65
2022/06/10 11:21:28;;;;;;;4.25;2.00;;;26.50;99.90;;;;;;5032922;28;20067;-65
2022/06/10 11:23:58;;;;;;;3.75;1.83;;;27.10;99.90;;;;;;5028021;28;20053;-65
2022/06/10 11:26:27;;;;;;;4.32;1.88;;;26.90;99.90;;;;;;5030026;28;20045;-65
2022/06/10 11:29:07;;;;;;;5.50;2.00;;;26.80;99.90;;;;;;5047671;28;20047;-65
2022/06/10 11:31:41;;;;;;;4.13;1.92;;;26.40;99.90;;;;;;5045101;28;20065;-65
2022/06/10 11:34:17;;;;;;;3.28;1.73;;;26.30;99.90;;;;;;5030066;28;20503;-65
2022/06/10 11:36:50;;;;;;;2.95;1.52;;;26.40;99.90;;;;;;5043301;28;20110;-65
2022/06/10 11:39:17;;;;;;;5.88;1.70;;;26.60;99.90;;;;;;5029495;28;20549;-65
2022/06/10 11:42:08;;;;;;;4.43;1.52;;;26.90;99.90;;;;;;5029552;28;20053;-66
2022/06/10 11:44:47;;;;;;;3.05;1.50;;;27.40;99.90;;;;;;5025911;28;20038;-65
2022/06/10 11:47:22;;;;;;;5.53;1.70;;;27.60;99.90;;;;;;5032606;28;20421;-65
2022/06/10 11:50:20;;;;;;;3.63;1.50;;;27.40;99.90;;;;;;5034120;28;20069;-65
2022/06/10 11:53:00;;;;;;;4.30;1.80;;;27.00;99.90;;;;;;5020073;28;20044;-66
2022/06/10 11:55:35;;;;;;;2.80;1.60;;;26.20;99.90;;;;;;5050823;28;20296;-65
2022/06/10 12:01:16;;;;;;;3.30;1.60;;;26.90;99.70;;;;;;5046832;28;20040;-65
2022/06/10 12:03:52;;;;;;;3.38;1.50;;;28.10;97.70;;;;;;5041704;28;20046;-66
2022/06/10 12:06:29;;;;;;;4.10;1.80;;;28.40;96.80;;;;;;5031037;28;20496;-65
2022/06/10 12:08:59;;;;;;;3.30;1.73;;;28.20;96.50;;;;;;5025254;28;20493;-65
2022/06/10 12:11:35;;;;;;;5.03;1.95;;;28.00;96.40;;;;;;5034561;28;20045;-65
2022/06/10 12:14:17;;;;;;;2.92;1.30;;;28.10;95.70;;;;;;5044170;28;20047;-65
2022/06/10 12:16:55;;;;;;;;;;;29.10;94.50;;;;;;5043693;28;20045;-65
2022/06/10 12:19:37;;;;;;;3.30;1.50;;;29.80;93.20;;;;;;5040952;28;20019;-63
2022/06/10 12:22:05;;;;;;;4.20;2.03;;;30.00;91.90;;;;;;5039361;28;20052;-65
2022/06/10 12:24:32;;;;;;;3.28;1.30;;;30.70;91.10;;;;;;5025249;28;20155;-64
2022/06/10 12:27:08;;;;;;;3.20;1.33;;;31.40;88.60;;;;;;5027422;28;20404;-64
2022/06/10 12:29:45;;;;;;;2.83;1.17;;;30.30;87.60;;;;;;5036476;28;20457;-64
2022/06/10 12:32:36;;;;;;;4.38;1.60;;;30.70;87.90;;;;;;5031335;28;20503;-65
2022/06/10 12:35:34;;;;;;;4.15;1.80;;;30.50;86.10;;;;;;5040889;28;20052;-66
2022/06/10 12:38:06;;;;;;;2.60;1.33;;;30.50;85.80;;;;;;5033269;28;20461;-66
2022/06/10 12:40:56;;;;;;;3.63;1.40;;;29.30;87.90;;;;;;5028944;28;20488;-65
2022/06/10 12:43:26;;;;;;;3.53;1.38;;;27.70;90.20;;;;;;5026720;28;20106;-65
2022/06/10 12:46:05;;;;;;;3.25;1.48;;;27.20;90.70;;;;;;5029701;28;20037;-66
2022/06/10 12:48:46;;;;;;;4.72;1.48;;;26.60;91.70;;;;;;5030555;28;20080;-65
2022/06/10 12:51:26;;;;;;;4.67;2.00;;;26.50;91.50;;;;;;5028007;28;20637;-65
2022/06/10 12:54:08;;;;;;;6.07;1.40;;;26.50;91.70;;;;;;5027473;28;20129;-65
2022/06/10 12:56:37;;;;;;;4.18;1.30;;;27.40;90.90;;;;;;5021730;28;20053;-65
2022/06/10 12:59:04;;;;;;;3.33;1.65;;;28.60;89.80;;;;;;5036624;28;20135;-65
2022/06/10 13:01:31;;;;;;;2.22;1.30;;;29.70;87.50;;;;;;5041750;28;20500;-65
2022/06/10 13:04:00;;;;;;;2.17;1.08;;;30.60;85.30;;;;;;5027277;28;20041;-65
2022/06/10 13:06:45;;;;;;;4.00;1.38;;;31.00;82.40;;;;;;5025829;28;20316;-65
2022/06/10 13:09:12;;;;;;;2.35;1.10;;;30.50;82.40;;;;;;5026973;28;20045;-65
2022/06/10 13:11:47;;;;;;;6.25;1.50;;;30.00;82.90;;;;;;5022351;28;20450;-65
2022/06/10 13:14:16;;;;;;;3.13;1.42;;;29.70;84.50;;;;;;5032080;28;20051;-65
2022/06/10 13:16:48;;;;;;;3.58;1.67;;;29.10;84.40;;;;;;5026566;28;20045;-66
2022/06/10 13:19:36;;;;;;;2.80;1.30;;;28.90;84.20;;;;;;5029785;28;20046;-64
2022/06/10 13:22:29;;;;;;;3.00;1.23;;;28.30;85.10;;;;;;5027968;28;20045;-65
2022/06/10 13:24:56;;;;;;;3.20;1.50;;;27.40;86.20;;;;;;5027240;28;20049;-64
2022/06/10 13:27:33;;;;;;;3.47;1.40;;;26.80;87.00;;;;;;5020348;28;20068;-65
2022/06/10 13:30:13;;;;;;;4.00;1.52;;;26.30;87.30;;;;;;5046955;28;20052;-65
2022/06/10 13:32:52;;;;;;;2.53;1.45;;;26.00;88.40;;;;;;5015932;28;20049;-65
2022/06/10 13:35:29;;;;;;;2.42;1.20;;;26.40;87.70;;;;;;5040577;28;20055;-65
2022/06/10 13:38:22;;;;;;;3.13;1.20;;;27.50;87.20;;;;;;5044930;28;20060;-64